Terminal Aerodrome Forecast
Issued by NWS

Home | Current Version | Previous Version | Text Only | Print | Product List | Glossary On
Versions: 1 2 3 4 5 6 7 8 9 10 11 12 13 14 15 16 17 18
000
FTAK31 PANC 231727
TAFAHO
TAF
PAHO 231727Z 2318/2418 VRB06KT P6SM SCT035 BKN080
     FM232300 24012G18KT P6SM FEW050 BKN250
     FM240500 23005KT P6SM SCT150 BKN250
     FM241500 23005KT P6SM -SHRA BKN030 OVC050=

USA.gov is the U.S. government's official web portal to all federal, state and local government web resources and services.